createdAt,value
2018-06-30T00:00:28.793Z,19.20
2018-06-30T00:02:58.169Z,19.10
2018-06-30T00:05:27.571Z,19.30
2018-06-30T00:07:56.871Z,19.20
2018-06-30T00:10:29.738Z,19.30
2018-06-30T00:13:00.467Z,19.20
2018-06-30T00:15:29.811Z,19.00
2018-06-30T00:17:59.123Z,18.90
2018-06-30T00:20:28.384Z,19.00
2018-06-30T00:22:57.728Z,19.10
2018-06-30T00:25:27.531Z,19.00
2018-06-30T00:27:57.326Z,18.80
2018-06-30T00:30:27.042Z,18.90
2018-06-30T00:32:56.979Z,18.70
2018-06-30T00:35:26.307Z,18.70
2018-06-30T00:37:55.667Z,18.50
2018-06-30T00:40:25.066Z,18.40
2018-06-30T00:42:54.376Z,18.40
2018-06-30T00:45:23.804Z,18.50
2018-06-30T00:47:53.250Z,18.50
2018-06-30T00:50:22.603Z,18.40
2018-06-30T00:52:51.870Z,18.50
2018-06-30T00:55:21.156Z,18.40
2018-06-30T00:57:50.559Z,18.30
2018-06-30T01:00:19.880Z,18.40
2018-06-30T01:02:49.343Z,18.20
2018-06-30T01:05:18.686Z,18.20
2018-06-30T01:07:48.510Z,18.10
2018-06-30T01:10:18.359Z,18.30
2018-06-30T01:12:47.632Z,18.20
2018-06-30T01:15:16.912Z,18.10
2018-06-30T01:17:46.211Z,18.00
2018-06-30T01:20:15.510Z,17.90
2018-06-30T01:22:44.745Z,18.00
2018-06-30T01:25:14.003Z,17.80
2018-06-30T01:27:43.284Z,17.60
2018-06-30T01:30:13.788Z,17.70
2018-06-30T01:32:43.175Z,17.70
2018-06-30T01:35:12.462Z,17.60
2018-06-30T01:37:41.691Z,17.60
2018-06-30T01:40:10.968Z,17.50
2018-06-30T01:42:40.222Z,17.50
2018-06-30T01:45:09.534Z,17.40
2018-06-30T01:47:38.900Z,17.30
2018-06-30T01:50:08.261Z,17.30
2018-06-30T01:52:37.724Z,17.30
2018-06-30T01:55:07.028Z,17.20
2018-06-30T01:57:36.342Z,17.30
2018-06-30T02:00:06.496Z,17.20
2018-06-30T02:02:35.841Z,17.10
2018-06-30T02:05:05.296Z,17.10
2018-06-30T02:07:34.547Z,17.10
2018-06-30T02:10:03.853Z,17.10
2018-06-30T02:12:33.189Z,17.10
2018-06-30T02:15:03.207Z,17.10
2018-06-30T02:17:32.494Z,17.00
2018-06-30T02:20:01.708Z,17.00
2018-06-30T02:22:30.972Z,16.90
2018-06-30T02:25:04.180Z,16.80
2018-06-30T02:27:34.271Z,16.80
2018-06-30T02:30:03.791Z,16.80
2018-06-30T02:32:33.101Z,17.00
2018-06-30T02:35:02.595Z,17.00
2018-06-30T02:37:31.915Z,17.00
2018-06-30T02:40:02.918Z,17.00
2018-06-30T02:42:32.148Z,17.00
2018-06-30T02:45:01.469Z,17.70
2018-06-30T02:47:31.550Z,17.60
2018-06-30T02:50:01.052Z,17.40
2018-06-30T02:52:30.340Z,17.20
2018-06-30T02:54:59.689Z,17.10
2018-06-30T02:57:28.952Z,17.10
2018-06-30T02:59:58.264Z,17.10
2018-06-30T03:02:27.543Z,17.20
2018-06-30T03:04:56.861Z,17.00
2018-06-30T03:07:26.423Z,17.00
2018-06-30T03:09:55.759Z,17.00
2018-06-30T03:12:25.069Z,17.10
2018-06-30T03:14:54.371Z,17.10
2018-06-30T03:17:23.653Z,17.10
2018-06-30T03:19:53.122Z,17.10
2018-06-30T03:22:22.822Z,17.20
2018-06-30T03:24:52.210Z,17.30
2018-06-30T03:27:21.552Z,17.50
2018-06-30T03:29:51.597Z,17.60
2018-06-30T03:32:21.626Z,17.50
2018-06-30T03:34:51.003Z,17.70
2018-06-30T03:37:20.666Z,17.80
2018-06-30T03:39:50.010Z,18.00
2018-06-30T03:42:19.380Z,17.90
2018-06-30T03:44:49.418Z,18.00
2018-06-30T03:47:18.779Z,18.00
2018-06-30T03:49:48.239Z,18.00
2018-06-30T03:52:17.479Z,17.90
2018-06-30T03:54:46.731Z,18.20
2018-06-30T03:57:16.003Z,18.00
2018-06-30T03:59:45.375Z,18.00
2018-06-30T04:02:14.680Z,18.20
2018-06-30T04:04:43.908Z,18.20
2018-06-30T04:07:13.213Z,18.40
2018-06-30T04:09:43.019Z,18.30
2018-06-30T04:12:12.275Z,18.30
2018-06-30T04:14:41.484Z,18.40
2018-06-30T04:17:11.444Z,18.30
2018-06-30T04:19:41.903Z,18.30
2018-06-30T04:22:11.327Z,18.30
2018-06-30T04:24:40.549Z,18.30
2018-06-30T04:27:09.843Z,18.40
2018-06-30T04:29:39.080Z,18.40
2018-06-30T04:32:08.412Z,18.40
2018-06-30T04:34:37.721Z,18.70
2018-06-30T04:37:06.999Z,18.70
2018-06-30T04:39:36.328Z,18.70
2018-06-30T04:42:05.730Z,18.80
2018-06-30T04:44:34.981Z,18.80
2018-06-30T04:47:04.193Z,18.80
2018-06-30T04:49:34.148Z,18.80
2018-06-30T04:52:03.656Z,18.70
2018-06-30T04:54:32.992Z,18.90
2018-06-30T04:57:02.252Z,18.90
2018-06-30T04:59:31.560Z,19.00
2018-06-30T05:02:00.810Z,19.10
2018-06-30T05:04:30.049Z,18.90
2018-06-30T05:06:59.380Z,19.00
2018-06-30T05:09:28.723Z,19.00
2018-06-30T05:11:58.007Z,19.20
2018-06-30T05:14:27.288Z,19.30
2018-06-30T05:16:56.634Z,19.30
2018-06-30T05:19:26.635Z,19.40
2018-06-30T05:21:55.931Z,19.40
2018-06-30T05:24:25.576Z,19.30
2018-06-30T05:26:54.974Z,19.30
2018-06-30T05:29:24.287Z,19.50
2018-06-30T05:31:53.760Z,19.70
2018-06-30T05:34:23.059Z,19.60
2018-06-30T05:36:53.071Z,19.70
2018-06-30T05:39:22.414Z,19.60
2018-06-30T05:41:51.656Z,19.70
2018-06-30T05:44:21.637Z,19.60
2018-06-30T05:46:50.872Z,19.80
2018-06-30T05:49:20.396Z,19.80
2018-06-30T05:51:49.716Z,19.90
2018-06-30T05:54:19.040Z,19.90
2018-06-30T05:56:48.400Z,20.00
2018-06-30T05:59:17.728Z,20.20
2018-06-30T06:01:47.096Z,20.40
2018-06-30T06:04:16.873Z,20.50
2018-06-30T06:06:46.382Z,20.60
2018-06-30T06:09:15.715Z,20.90
2018-06-30T06:11:45.585Z,21.00
2018-06-30T06:14:14.841Z,21.00
2018-06-30T06:16:44.263Z,21.10
2018-06-30T06:19:13.632Z,21.30
2018-06-30T06:21:43.032Z,21.40
2018-06-30T06:24:12.357Z,21.60
2018-06-30T06:26:41.920Z,21.70
2018-06-30T06:29:12.035Z,21.90
2018-06-30T06:31:41.328Z,22.00
2018-06-30T06:34:10.729Z,22.10
2018-06-30T06:36:40.080Z,22.30
2018-06-30T06:39:10.545Z,22.20
2018-06-30T06:41:40.275Z,22.30
2018-06-30T06:44:09.635Z,22.40
2018-06-30T06:46:39.475Z,22.40
2018-06-30T06:49:08.766Z,22.50
2018-06-30T06:51:38.211Z,22.70
2018-06-30T06:54:08.198Z,22.80
2018-06-30T06:56:38.574Z,23.00
2018-06-30T06:59:07.939Z,23.20
2018-06-30T07:01:37.319Z,23.40
2018-06-30T07:04:06.667Z,23.50
2018-06-30T07:06:36.026Z,23.70
2018-06-30T07:09:07.892Z,24.10
2018-06-30T07:11:37.453Z,24.30
2018-06-30T07:14:06.807Z,24.60
2018-06-30T07:16:36.127Z,24.80
2018-06-30T07:19:06.055Z,24.90
2018-06-30T07:21:35.646Z,25.10
2018-06-30T07:24:05.014Z,25.30
2018-06-30T07:26:34.338Z,25.40
2018-06-30T07:29:03.732Z,25.30
2018-06-30T07:31:33.240Z,25.60
2018-06-30T07:34:02.717Z,26.00
2018-06-30T07:36:32.053Z,25.90
2018-06-30T07:39:01.364Z,26.10
2018-06-30T07:41:30.745Z,26.30
2018-06-30T07:44:00.045Z,26.60
2018-06-30T07:46:29.412Z,26.70
2018-06-30T07:48:59.124Z,27.00
2018-06-30T07:51:28.708Z,27.00
2018-06-30T07:53:59.015Z,27.30
2018-06-30T07:56:28.304Z,27.60
2018-06-30T07:58:57.629Z,27.30
2018-06-30T08:01:27.063Z,27.40
2018-06-30T08:03:56.410Z,27.80
2018-06-30T08:06:25.806Z,28.10
2018-06-30T08:08:55.052Z,28.20
2018-06-30T08:11:24.381Z,28.40
2018-06-30T08:13:53.621Z,28.70
2018-06-30T08:16:22.967Z,28.80
2018-06-30T08:18:52.223Z,28.80
2018-06-30T08:21:21.591Z,28.40
2018-06-30T08:23:51.575Z,28.60
2018-06-30T08:26:20.904Z,28.80
2018-06-30T08:28:50.203Z,28.90
2018-06-30T08:31:19.436Z,29.10
2018-06-30T08:33:48.739Z,29.30
2018-06-30T08:36:18.030Z,29.20
2018-06-30T08:38:47.456Z,29.30
2018-06-30T08:41:16.753Z,29.20
2018-06-30T08:43:46.076Z,29.40
2018-06-30T08:46:15.408Z,29.50
2018-06-30T08:48:44.783Z,29.70
2018-06-30T08:51:14.164Z,29.80
2018-06-30T08:53:43.584Z,29.90
2018-06-30T08:56:12.985Z,30.10
2018-06-30T08:58:42.343Z,30.00
2018-06-30T09:01:11.846Z,30.20
2018-06-30T09:03:41.207Z,30.10
2018-06-30T09:06:11.208Z,30.50
2018-06-30T09:08:40.852Z,30.50
2018-06-30T09:11:10.837Z,30.80
2018-06-30T09:13:40.182Z,31.00
2018-06-30T09:16:09.472Z,30.60
2018-06-30T09:18:39.065Z,30.60
2018-06-30T09:21:08.478Z,30.80
2018-06-30T09:23:37.812Z,30.90
2018-06-30T09:26:07.196Z,30.60
2018-06-30T09:28:36.593Z,30.70
2018-06-30T09:31:05.915Z,30.90
2018-06-30T09:33:35.207Z,31.10
2018-06-30T09:36:04.591Z,31.20
2018-06-30T09:40:59.211Z,31.10
2018-06-30T09:43:28.498Z,31.60
2018-06-30T09:45:57.779Z,31.60
2018-06-30T09:48:27.129Z,31.60
2018-06-30T09:50:56.469Z,31.70
2018-06-30T09:53:25.707Z,31.70
2018-06-30T09:55:55.135Z,32.00
2018-06-30T09:58:24.412Z,32.10
2018-06-30T10:00:58.995Z,32.40
2018-06-30T10:03:28.313Z,32.40
2018-06-30T10:05:57.627Z,32.20
2018-06-30T10:08:26.893Z,32.40
2018-06-30T10:10:56.172Z,32.50
2018-06-30T10:13:25.565Z,32.70
2018-06-30T10:15:55.016Z,32.70
2018-06-30T10:18:24.366Z,32.80
2018-06-30T10:20:54.029Z,32.70
2018-06-30T10:23:23.152Z,32.60
2018-06-30T10:25:52.389Z,32.50
2018-06-30T10:28:21.972Z,32.40
2018-06-30T10:30:51.430Z,32.50
2018-06-30T10:33:20.660Z,32.70
2018-06-30T10:35:49.965Z,32.70
2018-06-30T10:38:19.339Z,32.80
2018-06-30T10:40:48.654Z,33.00
2018-06-30T10:43:18.168Z,33.20
2018-06-30T10:45:47.601Z,33.20
2018-06-30T10:48:16.951Z,33.50
2018-06-30T10:50:46.209Z,33.60
2018-06-30T10:53:15.510Z,33.70
2018-06-30T10:55:44.792Z,34.00
2018-06-30T10:58:14.063Z,33.60
2018-06-30T11:00:43.285Z,33.70
2018-06-30T11:03:13.672Z,33.70
2018-06-30T11:05:43.017Z,33.90
2018-06-30T11:08:12.311Z,34.00
2018-06-30T11:10:41.561Z,34.10
2018-06-30T11:13:10.855Z,33.90
2018-06-30T11:15:40.180Z,33.80
2018-06-30T11:18:09.501Z,33.70
2018-06-30T11:20:39.330Z,33.60
2018-06-30T11:23:09.125Z,33.80
2018-06-30T11:25:38.392Z,34.10
2018-06-30T11:28:07.760Z,34.20
2018-06-30T11:30:37.061Z,34.00
2018-06-30T11:33:06.407Z,34.30
2018-06-30T11:35:35.672Z,34.30
2018-06-30T11:38:04.937Z,34.20
2018-06-30T11:40:34.498Z,34.00
2018-06-30T11:43:03.671Z,34.00
2018-06-30T11:45:32.935Z,34.00
2018-06-30T11:48:02.266Z,33.70
2018-06-30T11:50:31.739Z,33.50
2018-06-30T11:53:00.929Z,33.60
2018-06-30T11:55:30.815Z,33.80
2018-06-30T11:58:00.155Z,34.10
2018-06-30T12:00:29.567Z,34.10
2018-06-30T12:02:59.969Z,34.10
2018-06-30T12:05:29.242Z,34.20
2018-06-30T12:07:58.527Z,34.30
2018-06-30T12:10:27.879Z,34.10
2018-06-30T12:12:57.765Z,33.70
2018-06-30T12:15:27.076Z,33.80
2018-06-30T12:17:56.348Z,33.80
2018-06-30T12:20:25.584Z,33.80
2018-06-30T12:22:54.927Z,33.60
2018-06-30T12:25:24.844Z,33.90
2018-06-30T12:27:54.108Z,33.90
2018-06-30T12:30:23.425Z,34.00
2018-06-30T12:32:52.769Z,33.90
2018-06-30T12:35:22.402Z,33.40
2018-06-30T12:37:51.744Z,33.50
2018-06-30T12:40:21.030Z,33.50
2018-06-30T12:42:50.672Z,33.30
2018-06-30T12:45:20.196Z,33.30
2018-06-30T12:47:49.516Z,33.20
2018-06-30T12:50:18.744Z,33.20
2018-06-30T12:52:48.750Z,33.10
2018-06-30T12:55:18.070Z,33.00
2018-06-30T12:57:47.372Z,32.90
2018-06-30T13:00:16.717Z,32.90
2018-06-30T13:02:46.266Z,33.00
2018-06-30T13:05:15.634Z,32.90
2018-06-30T13:07:45.028Z,33.00
2018-06-30T13:10:14.457Z,33.30
2018-06-30T13:12:43.826Z,33.40
2018-06-30T13:15:13.599Z,33.30
2018-06-30T13:17:42.855Z,33.30
2018-06-30T13:20:12.195Z,33.20
2018-06-30T13:22:41.563Z,32.50
2018-06-30T13:25:10.852Z,32.60
2018-06-30T13:27:40.186Z,32.60
2018-06-30T13:30:09.578Z,32.60
2018-06-30T13:32:38.879Z,32.80
2018-06-30T13:35:08.179Z,32.70
2018-06-30T13:37:37.488Z,32.60
2018-06-30T13:40:06.794Z,32.20
2018-06-30T13:42:36.253Z,32.10
2018-06-30T13:45:07.005Z,32.30
2018-06-30T13:47:36.296Z,32.50
2018-06-30T13:50:06.073Z,32.50
2018-06-30T13:52:35.418Z,32.40
2018-06-30T13:55:05.358Z,32.50
2018-06-30T13:57:34.992Z,32.40
2018-06-30T14:00:05.363Z,32.50
2018-06-30T14:02:34.662Z,32.00
2018-06-30T14:05:04.635Z,32.10
2018-06-30T14:07:34.068Z,32.10
2018-06-30T14:10:03.487Z,32.10
2018-06-30T14:12:32.844Z,32.00
2018-06-30T14:15:02.184Z,32.10
2018-06-30T14:17:32.061Z,32.20
2018-06-30T14:20:02.044Z,32.00
2018-06-30T14:22:31.351Z,31.90
2018-06-30T14:25:00.738Z,31.80
2018-06-30T14:27:30.020Z,31.70
2018-06-30T14:30:04.268Z,31.60
2018-06-30T14:32:33.522Z,31.50
2018-06-30T14:35:02.804Z,31.50
2018-06-30T14:37:32.103Z,31.60
2018-06-30T14:40:01.404Z,31.40
2018-06-30T14:42:30.683Z,31.40
2018-06-30T14:45:00.524Z,31.50
2018-06-30T14:47:29.767Z,31.30
2018-06-30T14:50:00.258Z,31.10
2018-06-30T14:52:29.728Z,30.80
2018-06-30T14:54:59.014Z,30.80
2018-06-30T14:57:28.792Z,30.70
2018-06-30T14:59:58.036Z,30.60
2018-06-30T15:02:27.288Z,30.50
2018-06-30T15:04:56.903Z,30.40
2018-06-30T15:07:27.002Z,30.10
2018-06-30T15:09:56.306Z,29.70
2018-06-30T15:12:25.683Z,29.60
2018-06-30T15:14:54.971Z,29.30
2018-06-30T15:17:24.525Z,29.00
2018-06-30T15:19:53.755Z,29.00
2018-06-30T15:22:23.298Z,29.00
2018-06-30T15:24:52.694Z,28.90
2018-06-30T15:27:21.938Z,28.80
2018-06-30T15:29:51.299Z,28.60
2018-06-30T15:32:21.465Z,28.40
2018-06-30T15:34:51.390Z,28.30
2018-06-30T15:37:20.672Z,28.30
2018-06-30T15:39:50.092Z,28.20
2018-06-30T15:42:19.420Z,28.10
2018-06-30T15:44:49.248Z,27.90
2018-06-30T15:47:18.629Z,27.80
2018-06-30T15:49:48.035Z,27.80
2018-06-30T15:52:17.348Z,27.80
2018-06-30T15:54:47.518Z,27.80
2018-06-30T15:57:17.354Z,27.70
2018-06-30T15:59:47.853Z,27.60
2018-06-30T16:02:17.959Z,27.50
2018-06-30T16:04:47.407Z,27.40
2018-06-30T16:07:17.133Z,27.40
2018-06-30T16:09:46.687Z,27.30
2018-06-30T16:12:16.152Z,27.20
2018-06-30T16:14:45.482Z,27.10
2018-06-30T16:17:14.811Z,27.10
2018-06-30T16:19:44.097Z,27.00
2018-06-30T16:22:13.912Z,26.90
2018-06-30T16:24:43.240Z,26.90
2018-06-30T16:27:12.544Z,26.90
2018-06-30T16:29:42.064Z,26.80
2018-06-30T16:32:11.456Z,26.80
2018-06-30T16:34:43.348Z,26.70
2018-06-30T16:37:12.615Z,26.60
2018-06-30T16:39:42.016Z,26.60
2018-06-30T16:42:12.025Z,26.50
2018-06-30T16:44:41.664Z,26.50
2018-06-30T16:47:12.092Z,26.40
2018-06-30T16:49:41.386Z,26.40
2018-06-30T16:52:10.859Z,26.30
2018-06-30T16:54:40.065Z,26.30
2018-06-30T16:57:09.420Z,26.20
2018-06-30T16:59:38.847Z,26.20
2018-06-30T17:02:08.444Z,26.10
2018-06-30T17:04:37.814Z,26.10
2018-06-30T17:07:07.473Z,26.00
2018-06-30T17:09:36.740Z,26.00
2018-06-30T17:12:06.270Z,25.90
2018-06-30T17:14:35.631Z,25.90
2018-06-30T17:17:05.012Z,25.90
2018-06-30T17:19:34.268Z,25.90
2018-06-30T17:22:03.727Z,25.90
2018-06-30T17:24:33.090Z,25.80
2018-06-30T17:27:03.208Z,25.80
2018-06-30T17:29:33.124Z,25.70
2018-06-30T17:32:02.990Z,25.70
2018-06-30T17:34:32.510Z,25.60
2018-06-30T17:37:01.937Z,25.60
2018-06-30T17:39:31.306Z,25.50
2018-06-30T17:42:00.808Z,25.50
2018-06-30T17:44:30.457Z,25.40
2018-06-30T17:47:00.777Z,25.40
2018-06-30T17:49:30.048Z,25.40
2018-06-30T17:51:59.473Z,25.30
2018-06-30T17:54:28.886Z,25.30
2018-06-30T17:59:27.424Z,25.20
2018-06-30T18:01:56.903Z,25.20
2018-06-30T18:04:26.462Z,25.20
2018-06-30T18:06:56.513Z,25.20
2018-06-30T18:09:27.210Z,25.10
2018-06-30T18:11:56.552Z,25.10
2018-06-30T18:14:25.853Z,25.00
2018-06-30T18:16:55.264Z,25.00
2018-06-30T18:19:24.529Z,24.90
2018-06-30T18:21:54.167Z,24.90
2018-06-30T18:24:23.616Z,24.80
2018-06-30T18:26:52.994Z,24.70
2018-06-30T18:29:22.383Z,24.70
2018-06-30T18:31:51.768Z,24.70
2018-06-30T18:34:21.177Z,24.60
2018-06-30T18:36:50.642Z,24.60
2018-06-30T18:39:20.673Z,24.60
2018-06-30T18:41:49.983Z,24.60
2018-06-30T18:44:19.399Z,24.50
2018-06-30T18:46:48.761Z,24.50
2018-06-30T18:49:18.092Z,24.50
2018-06-30T18:51:47.559Z,24.40
2018-06-30T18:54:17.109Z,24.30
2018-06-30T18:59:16.524Z,24.20
2018-06-30T19:01:46.737Z,24.10
2018-06-30T19:04:16.111Z,24.10
2018-06-30T19:06:45.394Z,24.00
2018-06-30T19:09:15.376Z,24.00
2018-06-30T19:11:45.284Z,24.00
2018-06-30T19:14:14.884Z,23.90
2018-06-30T19:16:44.477Z,23.90
2018-06-30T19:19:15.303Z,23.80
2018-06-30T19:21:44.594Z,23.70
2018-06-30T19:24:14.261Z,23.60
2018-06-30T19:26:44.617Z,23.60
2018-06-30T19:29:14.228Z,23.50
2018-06-30T19:31:43.671Z,23.50
2018-06-30T19:34:15.420Z,23.40
2018-06-30T19:36:45.156Z,23.30
2018-06-30T19:39:14.504Z,23.20
2018-06-30T19:41:44.111Z,23.20
2018-06-30T19:44:13.483Z,23.20
2018-06-30T19:46:43.707Z,23.10
2018-06-30T19:49:13.456Z,23.00
2018-06-30T19:51:42.820Z,22.90
2018-06-30T19:54:12.657Z,22.90
2018-06-30T19:56:42.104Z,22.80
2018-06-30T19:59:11.822Z,22.70
2018-06-30T20:01:41.290Z,22.60
2018-06-30T20:04:10.833Z,22.60
2018-06-30T20:06:40.252Z,22.70
2018-06-30T20:09:10.008Z,22.70
2018-06-30T20:11:39.895Z,22.60
2018-06-30T20:14:09.691Z,22.50
2018-06-30T20:16:39.075Z,22.50
2018-06-30T20:19:08.368Z,22.40
2018-06-30T20:21:38.931Z,22.40
2018-06-30T20:24:08.233Z,22.40
2018-06-30T20:26:37.845Z,22.30
2018-06-30T20:29:08.331Z,22.20
2018-06-30T20:31:38.736Z,22.20
2018-06-30T20:34:08.103Z,22.20
2018-06-30T20:41:36.366Z,22.10
2018-06-30T20:44:05.944Z,22.10
2018-06-30T20:46:35.517Z,22.00
2018-06-30T20:49:04.911Z,21.90
2018-06-30T20:51:34.211Z,21.90
2018-06-30T20:54:04.410Z,21.70
2018-06-30T20:56:33.644Z,21.80
2018-06-30T20:59:02.965Z,21.80
2018-06-30T21:01:32.605Z,21.70
2018-06-30T21:04:01.933Z,21.60
2018-06-30T21:06:31.239Z,21.70
2018-06-30T21:09:00.685Z,21.60
2018-06-30T21:11:30.547Z,21.60
2018-06-30T21:13:59.933Z,21.50
2018-06-30T21:16:29.293Z,21.50
2018-06-30T21:18:58.868Z,21.40
2018-06-30T21:21:28.216Z,21.40
2018-06-30T21:23:58.318Z,21.40
2018-06-30T21:26:27.641Z,21.30
2018-06-30T21:28:57.074Z,21.30
2018-06-30T21:31:26.437Z,21.20
2018-06-30T21:33:55.776Z,21.20
2018-06-30T21:36:25.229Z,21.10
2018-06-30T21:38:54.596Z,21.10
2018-06-30T21:41:23.998Z,21.10
2018-06-30T21:43:53.495Z,21.10
2018-06-30T21:46:22.842Z,20.90
2018-06-30T21:48:52.175Z,20.90
2018-06-30T21:51:22.232Z,20.90
2018-06-30T21:53:51.847Z,20.90
2018-06-30T21:56:21.200Z,20.70
2018-06-30T21:58:50.410Z,20.80
2018-06-30T22:01:24.495Z,20.70
2018-06-30T22:03:55.111Z,20.70
2018-06-30T22:06:24.378Z,20.60
2018-06-30T22:08:53.635Z,20.50
2018-06-30T22:11:23.130Z,20.40
2018-06-30T22:13:52.657Z,20.30
2018-06-30T22:16:22.089Z,20.30
2018-06-30T22:18:51.444Z,20.30
2018-06-30T22:21:21.781Z,20.30
2018-06-30T22:23:52.051Z,20.20
2018-06-30T22:26:21.365Z,20.20
2018-06-30T22:28:50.799Z,20.20
2018-06-30T22:31:20.108Z,20.10
2018-06-30T22:33:49.466Z,20.10
2018-06-30T22:36:18.817Z,20.10
2018-06-30T22:38:48.284Z,19.90
2018-06-30T22:41:17.633Z,19.90
2018-06-30T22:43:47.693Z,19.90
2018-06-30T22:46:16.968Z,19.80
2018-06-30T22:51:16.119Z,19.80
2018-06-30T22:53:46.078Z,19.70
2018-06-30T22:56:15.463Z,19.80
2018-06-30T22:58:44.847Z,19.70
2018-06-30T23:01:14.215Z,19.60
2018-06-30T23:03:43.794Z,19.50
2018-06-30T23:06:13.550Z,19.30
2018-06-30T23:08:48.806Z,19.30
2018-06-30T23:11:18.048Z,19.40
2018-06-30T23:13:47.468Z,19.40
2018-06-30T23:16:16.822Z,19.40
2018-06-30T23:18:47.122Z,19.40
2018-06-30T23:21:17.478Z,19.50
2018-06-30T23:23:46.835Z,19.50
2018-06-30T23:26:16.086Z,19.50
2018-06-30T23:28:45.525Z,19.40
2018-06-30T23:31:14.923Z,19.30
2018-06-30T23:33:44.584Z,19.30
2018-06-30T23:36:13.877Z,19.20
2018-06-30T23:38:43.899Z,19.30
2018-06-30T23:41:13.348Z,19.30
2018-06-30T23:43:44.287Z,19.30
2018-06-30T23:46:13.699Z,19.20
2018-06-30T23:48:43.415Z,19.30
2018-06-30T23:51:12.987Z,19.10
2018-06-30T23:53:42.251Z,19.10
2018-06-30T23:56:11.605Z,19.10
2018-06-30T23:58:41.026Z,19.10
